Terminal Aerodrome Forecast
Issued by NWS Paducah, KY

Home | Current Version | Previous Version | Text Only | Print | Product List | Glossary On
Versions: 1 2 3 4 5 6 7 8 9 10 11 12 13
476
FTUS43 KPAH 232338
TAFPAH
TAF
KPAH 232338Z 2400/2424 11005KT P6SM FEW250
     FM240200 14007KT P6SM FEW250
     FM240400 17011KT P6SM FEW250 WS020/19045KT
     FM241200 18012G20KT P6SM BKN020
     FM241600 18013G21KT P6SM OVC035=

USA.gov is the U.S. government's official web portal to all federal, state and local government web resources and services.